createdAt,value
2024-02-19T00:00:01.539Z,95.68
2024-02-19T00:01:02.542Z,95.57
2024-02-19T00:02:03.015Z,95.64
2024-02-19T00:03:03.903Z,95.84
2024-02-19T00:04:04.893Z,95.64
2024-02-19T00:05:05.456Z,95.64
2024-02-19T00:06:06.318Z,95.64
2024-02-19T00:07:07.268Z,95.53
2024-02-19T00:08:08.192Z,95.53
2024-02-19T00:09:09.086Z,95.32
2024-02-19T00:10:10.056Z,95.32
2024-02-19T00:11:11.001Z,95.43
2024-02-19T00:12:11.953Z,95.43
2024-02-19T00:13:12.835Z,95.43
2024-02-19T00:14:13.713Z,95.43
2024-02-19T00:15:14.588Z,95.22
2024-02-19T00:16:15.604Z,95.22
2024-02-19T00:17:16.026Z,95.32
2024-02-19T00:18:16.925Z,95.43
2024-02-19T00:19:17.881Z,95.64
2024-02-19T00:20:18.769Z,95.74
2024-02-19T00:21:19.675Z,95.84
2024-02-19T00:22:20.636Z,95.95
2024-02-19T00:23:21.497Z,95.89
2024-02-19T00:24:22.386Z,95.74
2024-02-19T00:25:23.303Z,95.74
2024-02-19T00:26:24.187Z,95.74
2024-02-19T00:27:25.066Z,95.74
2024-02-19T00:28:25.997Z,95.64
2024-02-19T00:29:26.871Z,95.64
2024-02-19T00:30:27.801Z,95.53
2024-02-19T00:31:28.690Z,95.53
2024-02-19T00:32:29.667Z,95.64
2024-02-19T00:33:30.541Z,95.43
2024-02-19T00:34:31.077Z,95.43
2024-02-19T00:35:31.945Z,95.32
2024-02-19T00:36:32.824Z,95.12
2024-02-19T00:37:33.732Z,95.12
2024-02-19T00:38:34.609Z,95.02
2024-02-19T00:39:35.523Z,94.81
2024-02-19T00:40:36.399Z,94.71
2024-02-19T00:41:37.409Z,93.47
2024-02-19T00:42:38.278Z,91.71
2024-02-19T00:43:39.135Z,92.44
2024-02-19T00:44:40.001Z,92.23
2024-02-19T00:45:40.916Z,90.58
2024-02-19T00:46:41.770Z,90.26
2024-02-19T00:47:42.815Z,89.34
2024-02-19T00:48:43.380Z,89.13
2024-02-19T00:49:44.079Z,89.86
2024-02-19T00:50:44.513Z,91.92
2024-02-19T00:51:45.416Z,92.13
2024-02-19T00:52:46.271Z,92.44
2024-02-19T00:53:47.168Z,92.33
2024-02-19T00:54:48.085Z,92.23
2024-02-19T00:55:51.370Z,92.23
2024-02-19T00:56:49.602Z,92.23
2024-02-19T00:57:50.501Z,92.44
2024-02-19T00:58:51.436Z,92.54
2024-02-19T00:59:52.307Z,92.85
2024-02-19T01:00:53.328Z,93.05
2024-02-19T01:01:53.829Z,93.05
2024-02-19T01:02:54.691Z,93.16
2024-02-19T01:03:55.650Z,93.26
2024-02-19T01:04:56.626Z,93.26
2024-02-19T01:05:57.495Z,93.26
2024-02-19T01:06:58.387Z,93.26
2024-02-19T01:07:59.235Z,93.37
2024-02-19T01:09:00.134Z,93.26
2024-02-19T01:10:01.063Z,93.37
2024-02-19T01:11:02.018Z,93.37
2024-02-19T01:12:02.879Z,93.26
2024-02-19T01:13:03.788Z,93.05
2024-02-19T01:14:04.680Z,92.99
2024-02-19T01:15:05.566Z,92.95
2024-02-19T01:16:06.502Z,92.85
2024-02-19T01:17:07.352Z,92.85
2024-02-19T01:18:08.273Z,92.85
2024-02-19T01:19:09.214Z,92.64
2024-02-19T01:20:10.077Z,92.54
2024-02-19T01:21:10.958Z,92.54
2024-02-19T01:22:11.904Z,92.54
2024-02-19T01:23:12.781Z,92.33
2024-02-19T01:24:13.683Z,92.13
2024-02-19T01:25:14.610Z,92.13
2024-02-19T01:26:15.449Z,92.02
2024-02-19T01:27:16.413Z,92.02
2024-02-19T01:28:17.377Z,92.02
2024-02-19T01:29:17.765Z,92.23
2024-02-19T01:30:18.667Z,92.33
2024-02-19T01:31:19.586Z,92.23
2024-02-19T01:32:20.431Z,92.13
2024-02-19T01:33:21.359Z,92.13
2024-02-19T01:34:22.273Z,92.13
2024-02-19T01:35:23.145Z,92.23
2024-02-19T01:36:24.026Z,92.33
2024-02-19T01:37:25.010Z,92.33
2024-02-19T01:38:25.886Z,92.33
2024-02-19T01:39:26.793Z,92.23
2024-02-19T01:40:27.706Z,92.13
2024-02-19T01:41:28.574Z,92.02
2024-02-19T01:42:29.643Z,92.02
2024-02-19T01:43:29.995Z,91.71
2024-02-19T01:44:30.870Z,90.58
2024-02-19T01:45:31.781Z,89.95
2024-02-19T01:46:32.710Z,90.37
2024-02-19T01:47:33.588Z,90.68
2024-02-19T01:48:34.581Z,91.30
2024-02-19T01:49:35.121Z,91.61
2024-02-19T01:50:36.075Z,91.71
2024-02-19T01:51:37.024Z,91.82
2024-02-19T01:52:37.889Z,91.92
2024-02-19T01:53:38.824Z,92.64
2024-02-19T01:54:39.727Z,92.64
2024-02-19T01:55:40.589Z,92.54
2024-02-19T01:56:41.471Z,92.54
2024-02-19T01:57:42.420Z,92.44
2024-02-19T01:58:43.263Z,92.44
2024-02-19T01:59:44.145Z,92.54
2024-02-19T02:00:45.187Z,92.64
2024-02-19T02:01:45.665Z,92.64
2024-02-19T02:02:46.612Z,92.95
2024-02-19T02:03:47.510Z,92.95
2024-02-19T02:04:48.357Z,92.95
2024-02-19T02:05:49.519Z,93.16
2024-02-19T02:06:50.082Z,93.68
2024-02-19T02:07:50.951Z,93.57
2024-02-19T02:08:51.889Z,93.26
2024-02-19T02:09:52.760Z,93.37
2024-02-19T02:10:53.660Z,93.47
2024-02-19T02:11:54.536Z,93.47
2024-02-19T02:12:55.501Z,93.57
2024-02-19T02:13:56.356Z,93.68
2024-02-19T02:14:57.249Z,93.78
2024-02-19T02:15:58.160Z,93.78
2024-02-19T02:16:59.041Z,93.78
2024-02-19T02:18:00.035Z,94.09
2024-02-19T02:19:00.640Z,94.40
2024-02-19T02:20:01.276Z,94.09
2024-02-19T02:21:01.762Z,93.98
2024-02-19T02:22:02.674Z,93.88
2024-02-19T02:23:03.541Z,93.88
2024-02-19T02:24:04.414Z,94.09
2024-02-19T02:25:05.309Z,94.40
2024-02-19T02:26:06.193Z,94.60
2024-02-19T02:27:07.117Z,94.75
2024-02-19T02:28:08.012Z,94.75
2024-02-19T02:29:08.857Z,94.75
2024-02-19T02:30:09.896Z,94.65
2024-02-19T02:31:10.391Z,94.75
2024-02-19T02:32:11.232Z,94.85
2024-02-19T02:33:12.247Z,94.75
2024-02-19T02:34:13.208Z,94.75
2024-02-19T02:35:14.087Z,94.96
2024-02-19T02:36:14.971Z,95.06
2024-02-19T02:37:15.958Z,95.06
2024-02-19T02:38:16.826Z,95.37
2024-02-19T02:39:17.741Z,95.27
2024-02-19T02:40:18.729Z,95.27
2024-02-19T02:41:19.587Z,95.37
2024-02-19T02:42:20.459Z,95.48
2024-02-19T02:43:21.408Z,95.57
2024-02-19T02:44:22.294Z,95.57
2024-02-19T02:45:23.189Z,95.57
2024-02-19T02:46:24.137Z,95.57
2024-02-19T02:47:24.577Z,95.99
2024-02-19T02:48:25.630Z,95.89
2024-02-19T02:49:26.098Z,95.78
2024-02-19T02:50:26.956Z,95.99
2024-02-19T02:51:27.843Z,96.30
2024-02-19T02:52:28.711Z,96.41
2024-02-19T02:53:29.609Z,96.92
2024-02-19T02:54:30.501Z,97.13
2024-02-19T02:55:31.380Z,96.92
2024-02-19T02:56:32.260Z,96.72
2024-02-19T02:57:33.157Z,96.82
2024-02-19T02:58:34.058Z,96.92
2024-02-19T02:59:34.922Z,97.02
2024-02-19T03:00:35.858Z,97.13
2024-02-19T03:01:36.790Z,97.02
2024-02-19T03:02:37.669Z,96.82
2024-02-19T03:03:38.654Z,96.82
2024-02-19T03:04:39.674Z,96.72
2024-02-19T03:05:40.067Z,97.02
2024-02-19T03:06:41.056Z,97.02
2024-02-19T03:07:41.525Z,96.92
2024-02-19T03:08:42.465Z,96.82
2024-02-19T03:09:43.316Z,96.82
2024-02-19T03:10:44.220Z,97.13
2024-02-19T03:11:45.080Z,97.33
2024-02-19T03:12:45.994Z,97.23
2024-02-19T03:13:46.872Z,97.07
2024-02-19T03:14:47.749Z,96.92
2024-02-19T03:15:48.660Z,96.82
2024-02-19T03:16:49.529Z,97.02
2024-02-19T03:17:50.467Z,97.02
2024-02-19T03:18:51.389Z,96.92
2024-02-19T03:19:52.330Z,96.92
2024-02-19T03:20:53.185Z,96.82
2024-02-19T03:21:54.128Z,96.82
2024-02-19T03:22:54.973Z,96.61
2024-02-19T03:23:55.840Z,96.61
2024-02-19T03:24:56.802Z,96.72
2024-02-19T03:25:57.641Z,96.72
2024-02-19T03:26:58.543Z,96.61
2024-02-19T03:27:59.474Z,96.66
2024-02-19T03:29:00.465Z,96.76
2024-02-19T03:30:01.297Z,96.86
2024-02-19T03:31:02.230Z,96.76
2024-02-19T03:32:03.071Z,96.76
2024-02-19T03:33:04.094Z,96.66
2024-02-19T03:34:04.599Z,96.97
2024-02-19T03:35:05.078Z,96.97
2024-02-19T03:36:05.973Z,97.07
2024-02-19T03:37:06.905Z,97.07
2024-02-19T03:38:07.769Z,96.97
2024-02-19T03:39:08.665Z,97.07
2024-02-19T03:40:09.637Z,96.97
2024-02-19T03:41:10.117Z,96.97
2024-02-19T03:42:11.005Z,96.86
2024-02-19T03:43:11.927Z,96.55
2024-02-19T03:44:12.886Z,96.34
2024-02-19T03:45:13.730Z,95.94
2024-02-19T03:46:14.646Z,95.83
2024-02-19T03:47:15.509Z,95.73
2024-02-19T03:48:16.503Z,95.52
2024-02-19T03:49:17.531Z,95.10
2024-02-19T03:50:17.974Z,94.79
2024-02-19T03:51:18.845Z,94.28
2024-02-19T03:52:19.805Z,94.28
2024-02-19T03:53:20.668Z,94.48
2024-02-19T03:54:21.542Z,94.69
2024-02-19T03:55:22.541Z,94.90
2024-02-19T03:56:23.378Z,95.00
2024-02-19T03:57:24.264Z,95.10
2024-02-19T03:58:25.157Z,95.10
2024-02-19T03:59:26.059Z,95.21
2024-02-19T04:00:26.968Z,95.10
2024-02-19T04:01:27.881Z,95.10
2024-02-19T04:02:28.739Z,95.10
2024-02-19T04:03:29.669Z,95.10
2024-02-19T04:04:30.680Z,94.90
2024-02-19T04:05:31.039Z,94.90
2024-02-19T04:06:31.951Z,94.69
2024-02-19T04:07:32.870Z,94.69
2024-02-19T04:08:33.706Z,94.69
2024-02-19T04:09:34.601Z,94.38
2024-02-19T04:10:35.483Z,94.38
2024-02-19T04:11:36.406Z,94.48
2024-02-19T04:12:37.316Z,94.59
2024-02-19T04:13:38.215Z,94.38
2024-02-19T04:14:39.093Z,94.22
2024-02-19T04:15:39.969Z,93.91
2024-02-19T04:16:40.825Z,93.39
2024-02-19T04:17:41.804Z,93.29
2024-02-19T04:18:42.798Z,93.39
2024-02-19T04:19:43.239Z,93.60
2024-02-19T04:20:44.127Z,93.66
2024-02-19T04:21:45.032Z,93.76
2024-02-19T04:22:45.884Z,93.66
2024-02-19T04:23:46.774Z,93.76
2024-02-19T04:24:47.697Z,93.70
2024-02-19T04:25:48.547Z,93.29
2024-02-19T04:26:49.451Z,93.08
2024-02-19T04:27:50.346Z,93.08
2024-02-19T04:28:51.220Z,93.29
2024-02-19T04:29:52.134Z,93.60
2024-02-19T04:30:53.040Z,93.08
2024-02-19T04:31:53.908Z,92.15
2024-02-19T04:32:55.042Z,92.15
2024-02-19T04:33:55.826Z,92.15
2024-02-19T04:34:56.410Z,92.05
2024-02-19T04:35:57.287Z,92.15
2024-02-19T04:36:58.194Z,92.46
2024-02-19T04:37:59.064Z,92.63
2024-02-19T04:38:59.972Z,92.83
2024-02-19T04:40:00.910Z,92.93
2024-02-19T04:41:01.783Z,92.83
2024-02-19T04:42:02.684Z,92.93
2024-02-19T04:43:03.683Z,92.83
2024-02-19T04:44:04.038Z,92.83
2024-02-19T04:45:05.051Z,92.72
2024-02-19T04:46:05.925Z,92.52
2024-02-19T04:47:06.778Z,92.32
2024-02-19T04:48:07.719Z,92.52
2024-02-19T04:49:08.621Z,92.77
2024-02-19T04:50:09.540Z,92.93
2024-02-19T04:51:10.422Z,93.04
2024-02-19T04:52:11.333Z,93.35
2024-02-19T04:53:15.209Z,93.35
2024-02-19T04:54:12.822Z,93.29
2024-02-19T04:55:13.734Z,93.39
2024-02-19T04:56:14.643Z,93.39
2024-02-19T04:57:15.531Z,93.60
2024-02-19T04:58:16.488Z,93.60
2024-02-19T04:59:17.371Z,93.29
2024-02-19T05:00:18.252Z,93.18
2024-02-19T05:01:19.166Z,93.49
2024-02-19T05:02:20.039Z,93.80
2024-02-19T05:03:20.887Z,93.80
2024-02-19T05:04:21.825Z,93.91
2024-02-19T05:05:22.708Z,94.01
2024-02-19T05:06:23.623Z,94.12
2024-02-19T05:07:24.490Z,94.32
2024-02-19T05:08:25.264Z,94.53
2024-02-19T05:09:26.122Z,94.53
2024-02-19T05:10:27.081Z,94.53
2024-02-19T05:11:28.011Z,94.53
2024-02-19T05:12:28.850Z,94.32
2024-02-19T05:13:29.711Z,94.01
2024-02-19T05:14:30.601Z,93.91
2024-02-19T05:15:31.501Z,93.91
2024-02-19T05:16:32.364Z,94.12
2024-02-19T05:17:33.298Z,94.01
2024-02-19T05:18:34.197Z,94.01
2024-02-19T05:19:35.113Z,94.01
2024-02-19T05:20:35.994Z,94.12
2024-02-19T05:21:36.886Z,94.22
2024-02-19T05:22:37.758Z,94.63
2024-02-19T05:23:38.637Z,94.53
2024-02-19T05:24:39.570Z,95.04
2024-02-19T05:25:40.441Z,95.15
2024-02-19T05:26:41.416Z,94.94
2024-02-19T05:27:41.881Z,94.84
2024-02-19T05:28:42.749Z,94.43
2024-02-19T05:29:43.816Z,94.43
2024-02-19T05:30:44.177Z,94.32
2024-02-19T05:31:45.025Z,94.43
2024-02-19T05:32:45.928Z,94.53
2024-02-19T05:33:46.786Z,94.63
2024-02-19T05:34:47.810Z,94.53
2024-02-19T05:35:48.296Z,94.73
2024-02-19T05:36:49.201Z,94.73
2024-02-19T05:37:50.046Z,94.53
2024-02-19T05:38:50.940Z,94.43
2024-02-19T05:39:51.905Z,94.63
2024-02-19T05:40:52.810Z,94.84
2024-02-19T05:41:53.687Z,94.84
2024-02-19T05:42:54.595Z,94.84
2024-02-19T05:43:55.439Z,95.04
2024-02-19T05:44:56.324Z,95.04
2024-02-19T05:45:57.264Z,95.04
2024-02-19T05:46:58.124Z,95.04
2024-02-19T05:47:59.059Z,95.04
2024-02-19T05:49:00.011Z,95.04
2024-02-19T05:50:00.505Z,95.04
2024-02-19T05:51:01.361Z,94.94
2024-02-19T05:52:02.279Z,95.15
2024-02-19T05:53:03.263Z,95.25
2024-02-19T05:54:04.145Z,95.25
2024-02-19T05:55:05.124Z,94.94
2024-02-19T05:56:06.003Z,94.73
2024-02-19T05:57:06.876Z,94.73
2024-02-19T05:58:07.801Z,94.63
2024-02-19T05:59:08.599Z,94.63
2024-02-19T06:00:09.495Z,94.53
2024-02-19T06:01:10.594Z,94.43
2024-02-19T06:02:11.164Z,94.43
2024-02-19T06:03:11.588Z,94.32
2024-02-19T06:04:12.558Z,94.32
2024-02-19T06:05:13.469Z,94.22
2024-02-19T06:06:14.500Z,94.32
2024-02-19T06:07:14.926Z,94.43
2024-02-19T06:08:15.747Z,94.53
2024-02-19T06:09:16.576Z,94.43
2024-02-19T06:10:17.490Z,94.32
2024-02-19T06:11:18.331Z,94.12
2024-02-19T06:12:19.160Z,93.85
2024-02-19T06:13:20.003Z,93.70
2024-02-19T06:14:20.813Z,93.49
2024-02-19T06:15:21.663Z,93.60
2024-02-19T06:16:22.643Z,93.64
2024-02-19T06:17:22.986Z,93.80
2024-02-19T06:18:23.922Z,94.01
2024-02-19T06:19:24.838Z,94.12
2024-02-19T06:20:25.652Z,94.12
2024-02-19T06:21:26.481Z,94.12
2024-02-19T06:22:27.377Z,94.22
2024-02-19T06:23:28.154Z,94.01
2024-02-19T06:24:28.983Z,93.80
2024-02-19T06:25:29.883Z,93.70
2024-02-19T06:26:30.677Z,93.70
2024-02-19T06:27:31.518Z,93.80
2024-02-19T06:28:32.343Z,94.01
2024-02-19T06:29:33.172Z,94.53
2024-02-19T06:30:33.998Z,94.22
2024-02-19T06:31:34.864Z,94.12
2024-02-19T06:32:35.668Z,94.12
2024-02-19T06:33:36.657Z,94.01
2024-02-19T06:34:37.220Z,93.70
2024-02-19T06:35:37.676Z,93.60
2024-02-19T06:36:38.503Z,93.70
2024-02-19T06:37:39.320Z,93.70
2024-02-19T06:38:40.154Z,93.91
2024-02-19T06:39:41.104Z,93.91
2024-02-19T06:40:41.972Z,94.12
2024-02-19T06:41:42.793Z,94.22
2024-02-19T06:42:43.665Z,94.12
2024-02-19T06:43:44.455Z,94.01
2024-02-19T06:44:45.282Z,94.12
2024-02-19T06:45:46.185Z,94.22
2024-02-19T06:46:47.026Z,94.22
2024-02-19T06:47:47.885Z,94.12
2024-02-19T06:48:50.720Z,94.22
2024-02-19T06:49:49.414Z,94.22
2024-02-19T06:50:50.272Z,94.32
2024-02-19T06:51:51.094Z,94.43
2024-02-19T06:52:51.923Z,94.22
2024-02-19T06:53:52.761Z,94.22
2024-02-19T06:54:53.636Z,94.22
2024-02-19T06:55:54.433Z,94.43
2024-02-19T06:56:55.255Z,94.53
2024-02-19T06:57:56.110Z,94.63
2024-02-19T06:58:56.943Z,94.53
2024-02-19T06:59:57.791Z,94.53
2024-02-19T07:00:58.735Z,94.43
2024-02-19T07:01:59.660Z,94.53
2024-02-19T07:03:00.536Z,94.53
2024-02-19T07:04:01.495Z,94.53
2024-02-19T07:05:02.484Z,94.63
2024-02-19T07:06:02.923Z,94.73
2024-02-19T07:07:03.818Z,94.84
2024-02-19T07:08:04.630Z,94.94
2024-02-19T07:09:05.433Z,95.04
2024-02-19T07:10:06.374Z,95.25
2024-02-19T07:11:07.241Z,95.56
2024-02-19T07:12:08.070Z,95.36
2024-02-19T07:13:09.009Z,95.36
2024-02-19T07:14:09.842Z,95.25
2024-02-19T07:15:10.682Z,95.15
2024-02-19T07:16:11.549Z,95.15
2024-02-19T07:17:12.370Z,94.73
2024-02-19T07:18:14.256Z,94.32
2024-02-19T07:19:13.941Z,94.32
2024-02-19T07:20:14.849Z,94.22
2024-02-19T07:21:15.636Z,94.12
2024-02-19T07:22:16.544Z,94.22
2024-02-19T07:23:17.392Z,94.32
2024-02-19T07:24:18.225Z,94.53
2024-02-19T07:25:21.787Z,94.53
2024-02-19T07:26:19.639Z,94.53
2024-02-19T07:27:20.470Z,94.32
2024-02-19T07:28:21.348Z,94.32
2024-02-19T07:29:22.163Z,94.32
2024-02-19T07:30:23.024Z,94.32
2024-02-19T07:31:23.893Z,94.12
2024-02-19T07:32:24.744Z,94.01
2024-02-19T07:33:25.637Z,94.01
2024-02-19T07:34:26.602Z,93.91
2024-02-19T07:35:27.425Z,93.80
2024-02-19T07:36:28.263Z,93.80
2024-02-19T07:37:29.120Z,93.91
2024-02-19T07:38:29.931Z,93.91
2024-02-19T07:39:30.786Z,94.01
2024-02-19T07:40:34.151Z,94.01
2024-02-19T07:41:32.289Z,93.80
2024-02-19T07:42:33.123Z,93.91
2024-02-19T07:43:34.156Z,94.43
2024-02-19T07:44:34.475Z,94.63
2024-02-19T07:45:35.298Z,94.73
2024-02-19T07:46:36.127Z,94.73
2024-02-19T07:47:37.114Z,95.15
2024-02-19T07:48:37.549Z,95.25
2024-02-19T07:49:38.446Z,95.36
2024-02-19T07:50:39.308Z,94.84
2024-02-19T07:51:40.227Z,94.63
2024-02-19T07:52:41.051Z,94.73
2024-02-19T07:53:41.892Z,94.84
2024-02-19T07:54:42.729Z,94.94
2024-02-19T07:55:43.539Z,94.84
2024-02-19T07:56:44.388Z,94.84
2024-02-19T07:57:45.302Z,95.15
2024-02-19T07:58:46.156Z,95.25
2024-02-19T07:59:46.976Z,95.36
2024-02-19T08:00:47.876Z,95.67
2024-02-19T08:01:48.773Z,95.77
2024-02-19T08:02:49.598Z,95.56
2024-02-19T08:03:50.507Z,95.36
2024-02-19T08:04:51.423Z,95.15
2024-02-19T08:05:51.843Z,94.73
2024-02-19T08:06:52.804Z,94.53
2024-02-19T08:07:53.274Z,94.53
2024-02-19T08:08:54.092Z,94.63
2024-02-19T08:09:54.929Z,94.63
2024-02-19T08:10:55.744Z,94.43
2024-02-19T08:11:56.690Z,94.22
2024-02-19T08:12:57.665Z,94.22
2024-02-19T08:13:58.569Z,94.32
2024-02-19T08:14:59.444Z,94.22
2024-02-19T08:16:00.347Z,94.32
2024-02-19T08:17:01.222Z,94.32
2024-02-19T08:18:02.170Z,94.32
2024-02-19T08:19:03.167Z,94.32
2024-02-19T08:20:03.571Z,94.43
2024-02-19T08:21:04.383Z,94.43
2024-02-19T08:22:05.221Z,94.32
2024-02-19T08:23:06.028Z,94.22
2024-02-19T08:24:06.854Z,94.22
2024-02-19T08:25:07.729Z,94.01
2024-02-19T08:26:08.532Z,93.91
2024-02-19T08:27:09.351Z,94.01
2024-02-19T08:28:10.213Z,94.12
2024-02-19T08:29:11.017Z,94.43
2024-02-19T08:30:11.851Z,94.63
2024-02-19T08:31:12.728Z,94.73
2024-02-19T08:32:13.538Z,94.84
2024-02-19T08:33:14.386Z,94.94
2024-02-19T08:34:17.840Z,94.73
2024-02-19T08:35:16.157Z,94.59
2024-02-19T08:36:16.620Z,94.48
2024-02-19T08:37:17.422Z,94.28
2024-02-19T08:38:18.256Z,94.38
2024-02-19T08:39:19.196Z,94.59
2024-02-19T08:40:20.038Z,94.48
2024-02-19T08:41:20.904Z,94.48
2024-02-19T08:42:21.734Z,94.38
2024-02-19T08:43:22.641Z,94.18
2024-02-19T08:44:23.438Z,94.07
2024-02-19T08:45:26.404Z,94.28
2024-02-19T08:46:24.882Z,94.07
2024-02-19T08:47:25.728Z,93.87
2024-02-19T08:48:26.682Z,93.76
2024-02-19T08:49:27.240Z,93.66
2024-02-19T08:50:27.591Z,93.45
2024-02-19T08:51:28.435Z,93.24
2024-02-19T08:52:29.307Z,93.45
2024-02-19T08:53:30.100Z,93.66
2024-02-19T08:54:30.930Z,93.55
2024-02-19T08:55:31.877Z,93.55
2024-02-19T08:56:32.662Z,93.45
2024-02-19T08:57:33.491Z,93.35
2024-02-19T08:58:34.345Z,93.35
2024-02-19T08:59:35.177Z,93.04
2024-02-19T09:00:36.013Z,92.83
2024-02-19T09:01:36.942Z,92.93
2024-02-19T09:02:37.764Z,93.04
2024-02-19T09:03:38.692Z,93.14
2024-02-19T09:04:39.633Z,92.83
2024-02-19T09:05:39.982Z,92.72
2024-02-19T09:06:40.895Z,92.83
2024-02-19T09:07:41.729Z,92.83
2024-02-19T09:08:42.562Z,92.89
2024-02-19T09:09:43.415Z,92.99
2024-02-19T09:10:44.222Z,93.10
2024-02-19T09:11:45.129Z,93.10
2024-02-19T09:12:45.976Z,93.10
2024-02-19T09:13:47.613Z,93.10
2024-02-19T09:14:47.656Z,93.20
2024-02-19T09:15:48.512Z,93.30
2024-02-19T09:16:49.336Z,93.30
2024-02-19T09:17:50.239Z,93.05
2024-02-19T09:18:51.138Z,92.64
2024-02-19T09:19:52.158Z,92.54
2024-02-19T09:20:52.961Z,92.64
2024-02-19T09:21:53.839Z,92.95
2024-02-19T09:22:54.647Z,92.85
2024-02-19T09:23:55.490Z,92.74
2024-02-19T09:24:56.335Z,92.85
2024-02-19T09:25:57.133Z,92.95
2024-02-19T09:26:57.979Z,93.26
2024-02-19T09:27:58.858Z,93.16
2024-02-19T09:28:59.650Z,93.26
2024-02-19T09:30:00.487Z,93.37
2024-02-19T09:31:01.423Z,93.37
2024-02-19T09:32:02.228Z,93.37
2024-02-19T09:33:03.184Z,93.57
2024-02-19T09:34:04.071Z,93.68
2024-02-19T09:35:05.067Z,93.47
2024-02-19T09:36:05.897Z,93.26
2024-02-19T09:37:06.772Z,93.57
2024-02-19T09:38:07.557Z,94.29
2024-02-19T09:39:08.375Z,94.35
2024-02-19T09:40:09.270Z,93.63
2024-02-19T09:41:10.086Z,93.22
2024-02-19T09:42:10.934Z,93.01
2024-02-19T09:43:11.791Z,93.73
2024-02-19T09:44:12.602Z,94.25
2024-02-19T09:45:13.441Z,93.94
2024-02-19T09:46:14.401Z,93.73
2024-02-19T09:47:15.211Z,93.43
2024-02-19T09:48:16.189Z,93.32
2024-02-19T09:49:17.180Z,93.12
2024-02-19T09:50:17.610Z,93.32
2024-02-19T09:51:29.253Z,93.53
2024-02-19T09:52:20.154Z,93.43
2024-02-19T09:53:19.974Z,93.32
2024-02-19T09:54:20.769Z,93.22
2024-02-19T09:55:21.730Z,93.01
2024-02-19T09:56:22.567Z,92.80
2024-02-19T09:57:23.412Z,92.91
2024-02-19T09:58:24.547Z,93.12
2024-02-19T09:59:25.055Z,93.73
2024-02-19T10:00:25.976Z,94.35
2024-02-19T10:01:26.884Z,93.73
2024-02-19T10:02:27.744Z,92.76
2024-02-19T10:03:28.565Z,92.46
2024-02-19T10:04:29.606Z,92.14
2024-02-19T10:05:30.309Z,92.35
2024-02-19T10:06:30.978Z,92.41
2024-02-19T10:07:31.434Z,93.85
2024-02-19T10:08:32.238Z,94.47
2024-02-19T10:09:33.092Z,94.17
2024-02-19T10:10:34.033Z,93.54
2024-02-19T10:11:34.894Z,93.09
2024-02-19T10:12:35.701Z,93.09
2024-02-19T10:13:36.554Z,93.09
2024-02-19T10:14:37.394Z,92.47
2024-02-19T10:15:38.232Z,92.27
2024-02-19T10:16:39.121Z,91.91
2024-02-19T10:17:40.047Z,91.91
2024-02-19T10:18:41.099Z,91.91
2024-02-19T10:19:41.539Z,91.91
2024-02-19T10:20:42.348Z,91.81
2024-02-19T10:21:43.173Z,91.30
2024-02-19T10:22:44.013Z,90.88
2024-02-19T10:23:44.861Z,91.30
2024-02-19T10:24:45.686Z,91.09
2024-02-19T10:25:46.509Z,91.19
2024-02-19T10:26:47.319Z,91.19
2024-02-19T10:27:48.161Z,91.09
2024-02-19T10:28:49.020Z,91.15
2024-02-19T10:29:49.843Z,91.36
2024-02-19T10:30:50.705Z,91.05
2024-02-19T10:31:51.503Z,90.12
2024-02-19T10:32:52.397Z,89.71
2024-02-19T10:33:53.424Z,90.12
2024-02-19T10:34:53.914Z,90.84
2024-02-19T10:35:54.717Z,91.52
2024-02-19T10:36:55.808Z,91.83
2024-02-19T10:37:56.161Z,91.83
2024-02-19T10:38:57.005Z,91.00
2024-02-19T10:39:57.861Z,90.75
2024-02-19T10:40:58.660Z,90.96
2024-02-19T10:41:59.477Z,89.83
2024-02-19T10:43:00.335Z,88.80
2024-02-19T10:44:01.141Z,88.59
2024-02-19T10:45:01.978Z,88.70
2024-02-19T10:46:02.824Z,88.49
2024-02-19T10:47:03.628Z,88.59
2024-02-19T10:48:04.548Z,87.98
2024-02-19T10:49:05.426Z,85.71
2024-02-19T10:50:05.936Z,86.23
2024-02-19T10:51:06.834Z,86.85
2024-02-19T10:52:07.676Z,86.74
2024-02-19T10:53:08.476Z,86.23
2024-02-19T10:54:09.324Z,86.74
2024-02-19T10:55:14.439Z,87.05
2024-02-19T10:56:11.891Z,87.26
2024-02-19T10:57:11.702Z,86.43
2024-02-19T10:58:12.619Z,86.02
2024-02-19T10:59:13.467Z,86.13
2024-02-19T11:00:14.299Z,86.85
2024-02-19T11:01:16.607Z,86.02
2024-02-19T11:02:15.908Z,85.61
2024-02-19T11:03:16.796Z,85.10
2024-02-19T11:04:18.121Z,84.79
2024-02-19T11:05:18.213Z,85.03
2024-02-19T11:06:19.007Z,85.96
2024-02-19T11:07:19.871Z,86.68
2024-02-19T11:08:20.683Z,87.51
2024-02-19T11:09:28.667Z,87.81
2024-02-19T11:10:23.312Z,87.92
2024-02-19T11:11:23.162Z,88.23
2024-02-19T11:12:24.015Z,88.53
2024-02-19T11:13:24.951Z,88.53
2024-02-19T11:14:25.782Z,88.53
2024-02-19T11:15:26.607Z,88.90
2024-02-19T11:16:27.560Z,89.42
2024-02-19T11:17:28.454Z,89.83
2024-02-19T11:18:29.294Z,89.01
2024-02-19T11:19:30.362Z,89.31
2024-02-19T11:20:30.797Z,88.70
2024-02-19T11:21:31.631Z,88.59
2024-02-19T11:22:32.491Z,89.83
2024-02-19T11:23:33.275Z,90.66
2024-02-19T11:24:34.089Z,91.89
2024-02-19T11:25:35.026Z,91.58
2024-02-19T11:26:35.807Z,91.89
2024-02-19T11:27:36.682Z,92.20
2024-02-19T11:28:37.454Z,90.96
2024-02-19T11:29:44.378Z,91.78
2024-02-19T11:30:40.123Z,92.20
2024-02-19T11:31:39.934Z,92.20
2024-02-19T11:32:40.805Z,92.40
2024-02-19T11:33:41.650Z,91.31
2024-02-19T11:34:42.476Z,90.39
2024-02-19T11:35:43.406Z,90.18
2024-02-19T11:36:44.264Z,90.08
2024-02-19T11:37:45.034Z,89.67
2024-02-19T11:38:45.857Z,90.08
2024-02-19T11:39:46.865Z,90.12
2024-02-19T11:40:47.198Z,89.91
2024-02-19T11:41:48.051Z,90.22
2024-02-19T11:42:48.901Z,90.64
2024-02-19T11:43:49.692Z,90.43
2024-02-19T11:44:50.580Z,90.22
2024-02-19T11:45:51.411Z,90.01
2024-02-19T11:46:52.217Z,90.12
2024-02-19T11:47:53.213Z,90.12
2024-02-19T11:48:54.266Z,90.12
2024-02-19T11:49:54.662Z,90.73
2024-02-19T11:50:55.471Z,90.53
2024-02-19T11:52:04.430Z,90.01
2024-02-19T11:52:58.102Z,90.01
2024-02-19T11:53:57.938Z,90.43
2024-02-19T11:54:58.791Z,90.53
2024-02-19T11:55:59.594Z,90.73
2024-02-19T11:57:00.415Z,90.84
2024-02-19T11:58:03.332Z,90.33
2024-02-19T11:59:01.781Z,89.09
2024-02-19T12:00:02.609Z,88.68
2024-02-19T12:01:03.582Z,88.68
2024-02-19T12:02:04.483Z,89.34
2024-02-19T12:03:05.327Z,88.92
2024-02-19T12:04:06.182Z,89.34
2024-02-19T12:05:07.010Z,89.95
2024-02-19T12:06:07.849Z,90.78
2024-02-19T12:07:08.720Z,90.67
2024-02-19T12:08:09.657Z,90.57
2024-02-19T12:09:10.515Z,90.67
2024-02-19T12:10:11.395Z,90.84
2024-02-19T12:11:12.194Z,90.64
2024-02-19T12:12:13.014Z,90.73
2024-02-19T12:13:13.945Z,89.91
2024-02-19T12:14:14.749Z,90.43
2024-02-19T12:15:15.566Z,91.36
2024-02-19T12:16:16.439Z,88.99
2024-02-19T12:17:17.220Z,88.47
2024-02-19T12:18:18.175Z,88.26
2024-02-19T12:19:19.063Z,88.57
2024-02-19T12:20:19.992Z,88.33
2024-02-19T12:21:20.420Z,88.23
2024-02-19T12:22:21.274Z,88.53
2024-02-19T12:23:22.078Z,86.79
2024-02-19T12:24:22.898Z,85.44
2024-02-19T12:25:23.769Z,85.34
2024-02-19T12:26:24.566Z,85.24
2024-02-19T12:27:25.414Z,85.75
2024-02-19T12:28:26.446Z,86.06
2024-02-19T12:29:26.817Z,84.42
2024-02-19T12:30:27.637Z,84.52
2024-02-19T12:31:28.545Z,83.80
2024-02-19T12:32:29.418Z,84.11
2024-02-19T12:33:30.295Z,84.72
2024-02-19T12:34:31.217Z,84.72
2024-02-19T12:35:32.228Z,85.44
2024-02-19T12:36:32.767Z,82.15
2024-02-19T12:37:33.179Z,80.23
2024-02-19T12:38:34.010Z,80.44
2024-02-19T12:39:34.836Z,82.29
2024-02-19T12:40:35.852Z,84.14
2024-02-19T12:41:36.171Z,82.81
2024-02-19T12:42:37.005Z,81.47
2024-02-19T12:43:37.903Z,82.74
2024-02-19T12:44:38.702Z,81.61
2024-02-19T12:45:39.533Z,82.64
2024-02-19T12:46:40.466Z,83.87
2024-02-19T12:47:41.412Z,84.91
2024-02-19T12:48:42.447Z,85.63
2024-02-19T12:49:42.888Z,86.24
2024-02-19T12:50:43.811Z,85.73
2024-02-19T12:51:44.697Z,85.52
2024-02-19T12:52:45.548Z,86.10
2024-02-19T12:53:46.348Z,86.72
2024-02-19T12:54:47.199Z,87.03
2024-02-19T12:55:48.105Z,87.24
2024-02-19T12:56:48.941Z,87.34
2024-02-19T12:57:49.817Z,87.60
2024-02-19T12:58:50.662Z,87.60
2024-02-19T12:59:51.507Z,87.09
2024-02-19T13:00:52.461Z,86.68
2024-02-19T13:01:53.332Z,86.16
2024-02-19T13:02:54.233Z,86.16